Time;durP1;ratioP1;P1;durP2;ratioP2;P2;SDS_P1;SDS_P2;PMS_P1;PMS_P2;Temp;Humidity;BMP_temperature;BMP_pressure;BME280_temperature;BME280_humidity;BME280_pressure;Samples;Min_cycle;Max_cycle;Signal;HPM_P1;HPM_P2
2022/10/28 00:01:16;;;;;;;1999.90;999.90;;;;;;;11.16;100.00;95572.13;5116070;28;20178;-61
2022/10/28 00:03:45;;;;;;;1999.90;999.90;;;;;;;11.14;100.00;95569.78;5116275;28;20225;-61
2022/10/28 00:06:19;;;;;;;1999.90;999.90;;;;;;;11.13;100.00;95551.06;5115890;28;20362;-62
2022/10/28 00:08:44;;;;;;;1999.90;999.90;;;;;;;11.12;100.00;95533.91;5116575;28;20166;-61
2022/10/28 00:11:15;;;;;;;1999.90;999.90;;;;;;;11.11;100.00;95520.63;5115637;28;20171;-62
2022/10/28 00:13:42;;;;;;;1999.90;999.90;;;;;;;11.09;100.00;95518.31;5116036;28;20263;-62
2022/10/28 00:16:16;;;;;;;1999.90;999.90;;;;;;;11.09;100.00;95503.84;5115636;28;20169;-63
2022/10/28 00:18:42;;;;;;;1999.90;999.90;;;;;;;11.07;100.00;95530.81;5115551;28;20241;-62
2022/10/28 00:21:11;;;;;;;1999.90;999.90;;;;;;;11.08;100.00;95521.44;5115168;28;20192;-63
2022/10/28 00:23:37;;;;;;;1999.90;999.90;;;;;;;11.07;100.00;95519.91;5115495;28;20220;-63
2022/10/28 00:26:18;;;;;;;1999.90;999.90;;;;;;;10.98;100.00;95512.16;5114976;28;20199;-63
2022/10/28 00:28:49;;;;;;;1999.90;999.90;;;;;;;11.00;100.00;95509.00;5115775;28;20174;-63
2022/10/28 00:31:17;;;;;;;1999.90;999.90;;;;;;;10.97;100.00;95507.09;5115934;28;20168;-75
2022/10/28 00:33:42;;;;;;;1999.90;999.90;;;;;;;10.96;100.00;95513.75;5115081;28;20174;-75
2022/10/28 00:36:13;;;;;;;1999.90;999.90;;;;;;;10.90;100.00;95515.34;5114795;28;20282;-74
2022/10/28 00:38:40;;;;;;;1999.90;999.90;;;;;;;10.90;100.00;95509.88;5115921;28;20173;-74
2022/10/28 00:41:06;;;;;;;1999.90;999.90;;;;;;;10.87;100.00;95510.66;5115214;28;20185;-74
2022/10/28 00:43:45;;;;;;;1999.90;999.90;;;;;;;10.86;100.00;95498.19;5115042;28;20174;-74
2022/10/28 00:46:22;;;;;;;1999.90;999.90;;;;;;;10.84;100.00;95495.06;5115487;28;20201;-63
2022/10/28 00:48:52;;;;;;;1999.90;999.90;;;;;;;10.81;100.00;95487.72;5116431;28;20163;-61
2022/10/28 00:51:20;;;;;;;1999.90;999.90;;;;;;;10.77;100.00;95482.25;5114932;28;20228;-62
2022/10/28 00:53:47;;;;;;;1999.90;999.90;;;;;;;10.76;100.00;95477.19;5114599;28;20173;-62
2022/10/28 00:56:15;;;;;;;1999.90;999.90;;;;;;;10.76;100.00;95469.00;5115983;27;20177;-62
2022/10/28 00:58:40;;;;;;;1999.90;999.90;;;;;;;10.74;100.00;95469.41;5115056;28;20232;-61
2022/10/28 01:01:06;;;;;;;1999.90;999.90;;;;;;;10.75;100.00;95470.19;5114697;28;20173;-61
2022/10/28 01:03:31;;;;;;;1999.90;999.90;;;;;;;10.78;100.00;95466.66;5114592;28;20183;-78
2022/10/28 01:05:57;;;;;;;1999.90;999.90;;;;;;;10.80;100.00;95469.75;5114911;28;20203;-74
2022/10/28 01:08:22;;;;;;;1999.90;999.90;;;;;;;10.81;100.00;95468.59;5115023;28;20223;-74
2022/10/28 01:11:19;;;;;;;1999.90;999.90;;;;;;;10.79;100.00;95482.66;5114792;28;20176;-80
2022/10/28 01:13:57;;;;;;;1999.90;999.90;;;;;;;10.77;100.00;95489.66;5114848;28;20167;-78
2022/10/28 01:16:34;;;;;;;1999.90;999.90;;;;;;;10.74;100.00;95490.50;5114226;28;20177;-77
2022/10/28 01:19:18;;;;;;;1999.90;999.90;;;;;;;10.74;100.00;95490.50;5115187;28;20172;-77
2022/10/28 01:22:12;;;;;;;1999.90;999.90;;;;;;;10.75;100.00;95492.03;5114168;28;20233;-63
2022/10/28 01:24:52;;;;;;;1999.90;999.90;;;;;;;10.78;100.00;95507.63;5114087;28;20224;-65
2022/10/28 01:27:28;;;;;;;1999.90;999.90;;;;;;;10.80;100.00;95505.25;5115044;28;20187;-64
2022/10/28 01:30:13;;;;;;;1999.90;999.90;;;;;;;10.79;100.00;95520.88;5114461;28;20213;-63
2022/10/28 01:32:57;;;;;;;1999.90;999.90;;;;;;;10.77;100.00;95522.44;5115102;28;20183;-63
2022/10/28 01:35:42;;;;;;;1999.90;999.90;;;;;;;10.76;100.00;95531.81;5115068;28;20186;-62
2022/10/28 01:38:14;;;;;;;1999.90;999.90;;;;;;;10.75;100.00;95535.72;5113920;28;20215;-62
2022/10/28 01:40:46;;;;;;;1999.90;999.90;;;;;;;10.75;100.00;95541.19;5114173;28;20248;-63
2022/10/28 01:43:33;;;;;;;1999.90;999.90;;;;;;;10.75;100.00;95552.13;5114243;28;20179;-74
2022/10/28 01:46:10;;;;;;;1999.90;999.90;;;;;;;10.72;100.00;95558.38;5114564;28;20197;-75
2022/10/28 01:48:45;;;;;;;1999.90;999.90;;;;;;;10.72;100.00;95547.44;5114073;28;20168;-73
2022/10/28 01:51:19;;;;;;;1999.90;999.90;;;;;;;10.70;100.00;95560.75;5114594;28;20191;-74
2022/10/28 01:53:50;;;;;;;1999.90;999.90;;;;;;;10.67;100.00;95556.09;5114698;28;20281;-73
2022/10/28 01:56:20;;;;;;;1999.90;999.90;;;;;;;10.65;100.00;95555.69;5114570;28;20168;-74
2022/10/28 01:58:47;;;;;;;1999.90;999.90;;;;;;;10.65;100.00;95556.47;5114510;28;20217;-61
2022/10/28 02:01:13;;;;;;;1999.90;999.90;;;;;;;10.65;100.00;95553.75;5113562;28;20316;-63
2022/10/28 02:03:38;;;;;;;1999.90;999.90;;;;;;;10.62;100.00;95556.47;5114152;28;20232;-63
2022/10/28 02:06:11;;;;;;;1999.90;999.90;;;;;;;10.60;100.00;95562.34;5114016;28;20206;-62
2022/10/28 02:08:52;;;;;;;1999.90;999.90;;;;;;;10.60;100.00;95572.50;5114611;28;20202;-62
2022/10/28 02:11:20;;;;;;;1999.90;999.90;;;;;;;10.58;100.00;95574.84;5113638;28;20176;-63
2022/10/28 02:13:59;;;;;;;1999.90;999.90;;;;;;;10.59;100.00;95581.88;5114458;28;20180;-63
2022/10/28 02:17:02;;;;;;;1999.90;999.90;;;;;;;10.60;100.00;95588.88;5114427;28;20266;-62
2022/10/28 02:19:42;;;;;;;1999.90;999.90;;;;;;;10.60;100.00;95600.56;5113818;28;20203;-60
2022/10/28 02:22:29;;;;;;;1999.90;999.90;;;;;;;10.59;100.00;95603.72;5114353;28;20260;-61
2022/10/28 02:25:07;;;;;;;1999.90;999.90;;;;;;;10.60;100.00;95599.81;5114283;28;20199;-61
2022/10/28 02:27:58;;;;;;;1999.90;999.90;;;;;;;10.60;100.00;95608.00;5113407;28;20289;-61
2022/10/28 02:30:41;;;;;;;1999.90;999.90;;;;;;;10.60;100.00;95606.03;5114223;28;20184;-61
2022/10/28 02:33:11;;;;;;;1999.90;999.90;;;;;;;10.58;100.00;95613.06;5114271;28;20196;-60
2022/10/28 02:35:43;;;;;;;1999.90;999.90;;;;;;;10.56;100.00;95610.72;5113714;28;20176;-61
2022/10/28 02:38:15;;;;;;;1999.90;999.90;;;;;;;10.56;100.00;95626.38;5113757;28;20174;-63
2022/10/28 02:40:44;;;;;;;1999.90;999.90;;;;;;;10.55;100.00;95619.31;5113993;28;20203;-62
2022/10/28 02:43:14;;;;;;;1999.90;999.90;;;;;;;10.56;100.00;95620.91;5113527;28;20174;-64
2022/10/28 02:45:43;;;;;;;1999.90;999.90;;;;;;;10.56;100.00;95620.91;5113501;28;20223;-63
2022/10/28 02:48:15;;;;;;;1999.90;999.90;;;;;;;10.59;100.00;95625.56;5113349;28;20170;-63
2022/10/28 02:50:47;;;;;;;1999.90;999.90;;;;;;;10.59;100.00;95631.03;5114067;28;20266;-62
2022/10/28 02:53:21;;;;;;;1999.90;999.90;;;;;;;10.58;100.00;95640.38;5114145;28;20179;-62
2022/10/28 02:55:53;;;;;;;1999.90;999.90;;;;;;;10.56;100.00;95640.00;5114058;28;20176;-78
2022/10/28 02:58:20;;;;;;;1999.90;999.90;;;;;;;10.55;100.00;95646.63;5113470;28;20207;-63
2022/10/28 03:00:46;;;;;;;1999.90;999.90;;;;;;;10.52;100.00;95642.75;5114387;28;20203;-62
2022/10/28 03:03:12;;;;;;;1999.90;999.90;;;;;;;10.49;100.00;95642.78;5117042;28;20183;-62
2022/10/28 03:05:37;;;;;;;1999.90;999.90;;;;;;;10.47;100.00;95639.63;5116683;28;20203;-63
2022/10/28 03:08:03;;;;;;;1999.90;999.90;;;;;;;10.43;100.00;95630.69;5117742;28;20181;-64
2022/10/28 03:10:28;;;;;;;1999.90;999.90;;;;;;;10.40;100.00;95626.03;5116684;28;20316;-62
2022/10/28 03:12:53;;;;;;;1999.90;999.90;;;;;;;10.37;100.00;95610.47;5117831;28;20172;-75
2022/10/28 03:15:19;;;;;;;1999.90;999.90;;;;;;;10.37;100.00;95602.25;5117145;28;20252;-63
2022/10/28 03:17:44;;;;;;;1999.90;999.90;;;;;;;10.39;100.00;95597.97;5116668;28;20172;-65
2022/10/28 03:20:10;;;;;;;1999.90;999.90;;;;;;;10.40;100.00;95609.63;5116578;28;20254;-62
2022/10/28 03:22:35;;;;;;;1999.90;999.90;;;;;;;10.43;100.00;95612.38;5116064;28;20172;-63
2022/10/28 03:25:00;;;;;;;1999.90;999.90;;;;;;;10.44;100.00;95611.19;5116578;28;20203;-65
2022/10/28 03:27:26;;;;;;;1999.90;999.90;;;;;;;10.44;100.00;95613.13;5117400;28;20173;-65
2022/10/28 03:29:51;;;;;;;1999.90;999.90;;;;;;;10.44;100.00;95611.19;5116628;28;20229;-63
2022/10/28 03:32:16;;;;;;;1999.90;999.90;;;;;;;10.45;100.00;95623.66;5116795;28;20172;-76
2022/10/28 03:34:42;;;;;;;1999.90;999.90;;;;;;;10.46;100.00;95621.72;5116730;28;20172;-63
2022/10/28 03:37:07;;;;;;;1999.90;999.90;;;;;;;10.46;100.00;95627.19;5116225;28;20171;-60
2022/10/28 03:39:32;;;;;;;1999.90;999.90;;;;;;;10.47;100.00;95628.72;5116511;28;20169;-63
2022/10/28 03:41:58;;;;;;;1999.90;999.90;;;;;;;10.51;100.00;95640.41;5116362;28;20174;-63
2022/10/28 03:44:23;;;;;;;1999.90;999.90;;;;;;;10.50;100.00;95647.84;5116780;28;20174;-63
2022/10/28 03:46:48;;;;;;;1999.90;999.90;;;;;;;10.52;100.00;95652.91;5116505;28;20198;-63
2022/10/28 03:49:14;;;;;;;1999.90;999.90;;;;;;;10.51;100.00;95657.56;5116185;28;20203;-65
2022/10/28 03:51:39;;;;;;;1999.90;999.90;;;;;;;10.50;100.00;95660.69;5116223;28;20199;-62
2022/10/28 03:54:04;;;;;;;1999.90;999.90;;;;;;;10.48;100.00;95657.59;5115799;28;20173;-62
2022/10/28 03:56:30;;;;;;;1999.90;999.90;;;;;;;10.47;100.00;95667.72;5116049;28;20256;-62
2022/10/28 03:58:55;;;;;;;1999.90;999.90;;;;;;;10.51;100.00;95673.16;5116080;28;20172;-60
2022/10/28 04:01:20;;;;;;;1999.90;999.90;;;;;;;10.53;100.00;95676.28;5115800;28;20180;-61
2022/10/28 04:03:46;;;;;;;1999.90;999.90;;;;;;;10.53;100.00;95688.00;5115905;28;20206;-60
2022/10/28 04:06:11;;;;;;;1999.90;999.90;;;;;;;10.53;100.00;95689.94;5116141;28;20311;-62
2022/10/28 04:08:37;;;;;;;1999.90;999.90;;;;;;;10.50;100.00;95699.72;5115913;28;20216;-73
2022/10/28 04:11:03;;;;;;;1999.90;999.90;;;;;;;10.47;100.00;95692.31;5115337;28;20259;-72
2022/10/28 04:13:28;;;;;;;1999.90;999.90;;;;;;;10.45;100.00;95691.91;5116171;28;20208;-73
2022/10/28 04:15:54;;;;;;;1999.90;999.90;;;;;;;10.40;100.00;95677.88;5116132;28;20223;-74
2022/10/28 04:18:19;;;;;;;1999.90;999.90;;;;;;;10.41;100.00;95679.47;5115646;28;20220;-74
2022/10/28 04:20:45;;;;;;;1999.90;999.90;;;;;;;10.42;100.00;95675.56;5116086;28;20180;-76
2022/10/28 04:23:15;;;;;;;1999.90;999.90;;;;;;;10.45;100.00;95680.22;5116191;27;20227;-75
2022/10/28 04:25:41;;;;;;;1999.90;999.90;;;;;;;10.45;100.00;95685.69;5115235;28;20328;-65
2022/10/28 04:28:06;;;;;;;1999.90;999.90;;;;;;;10.47;100.00;95683.31;5115926;28;20267;-61
2022/10/28 04:30:32;;;;;;;1999.90;999.90;;;;;;;10.47;100.00;95680.59;5114844;28;20174;-63
2022/10/28 04:32:57;;;;;;;1999.90;999.90;;;;;;;10.47;100.00;95695.03;5115845;28;20185;-63
2022/10/28 04:35:23;;;;;;;1999.90;999.90;;;;;;;10.48;100.00;95690.38;5115285;28;20179;-62
2022/10/28 04:37:48;;;;;;;1999.90;999.90;;;;;;;10.44;100.00;95701.28;5115419;28;20176;-63
2022/10/28 04:40:14;;;;;;;1999.90;999.90;;;;;;;10.42;100.00;95697.41;5114862;28;20174;-65
2022/10/28 04:42:39;;;;;;;1999.90;999.90;;;;;;;10.42;100.00;95698.19;5115938;28;20171;-63
2022/10/28 04:45:05;;;;;;;1999.90;999.90;;;;;;;10.40;100.00;95692.31;5115088;28;20195;-60
2022/10/28 04:47:31;;;;;;;1999.90;999.90;;;;;;;10.37;100.00;95690.38;5114832;28;20176;-62
2022/10/28 04:49:56;;;;;;;1999.90;999.90;;;;;;;10.33;100.00;95677.91;5114572;28;20183;-61
2022/10/28 04:52:21;;;;;;;1999.90;999.90;;;;;;;10.32;100.00;95673.63;5115057;28;20219;-64
2022/10/28 04:54:47;;;;;;;1999.90;999.90;;;;;;;10.31;100.00;95667.41;5114736;28;20168;-64
2022/10/28 04:57:12;;;;;;;1999.90;999.90;;;;;;;10.29;100.00;95663.50;5115604;28;20177;-64
2022/10/28 04:59:37;;;;;;;1999.90;999.90;;;;;;;10.29;100.00;95663.50;5114665;28;20205;-64
2022/10/28 05:02:03;;;;;;;1999.90;999.90;;;;;;;10.31;100.00;95652.97;5114551;28;20175;-65
2022/10/28 05:04:28;;;;;;;1999.90;999.90;;;;;;;10.32;100.00;95670.91;5115029;28;20243;-65
2022/10/28 05:06:54;;;;;;;1999.90;999.90;;;;;;;10.34;100.00;95674.78;5114470;28;20225;-64
2022/10/28 05:09:19;;;;;;;1999.90;999.90;;;;;;;10.35;100.00;95670.13;5114388;28;20313;-64
2022/10/28 05:11:44;;;;;;;1999.90;999.90;;;;;;;10.30;100.00;95667.81;5114455;28;20179;-64
2022/10/28 05:14:09;;;;;;;1999.90;999.90;;;;;;;10.28;100.00;95659.22;5114490;28;20168;-64
2022/10/28 05:16:35;;;;;;;1999.90;999.90;;;;;;;10.32;100.00;95666.22;5114193;28;20172;-64
2022/10/28 05:19:00;;;;;;;1999.90;999.90;;;;;;;10.34;100.00;95672.06;5114204;28;20215;-64
2022/10/28 05:21:26;;;;;;;1999.90;999.90;;;;;;;10.38;100.00;95674.78;5114496;28;20177;-64
2022/10/28 05:23:52;;;;;;;1999.90;999.90;;;;;;;10.40;100.00;95692.31;5113153;28;20219;-63
2022/10/28 05:26:17;;;;;;;1999.90;999.90;;;;;;;10.41;100.00;95698.56;5114187;28;20209;-64
2022/10/28 05:28:42;;;;;;;1999.90;999.90;;;;;;;10.39;100.00;95696.22;5114530;28;20176;-64
2022/10/28 05:31:09;;;;;;;1999.90;999.90;;;;;;;10.38;100.00;95691.16;5114165;28;20174;-64
2022/10/28 05:33:34;;;;;;;1999.90;999.90;;;;;;;10.32;100.00;95685.34;5114734;28;20180;-63
2022/10/28 05:35:59;;;;;;;1999.90;999.90;;;;;;;10.35;100.00;95675.56;5113853;28;20181;-65
2022/10/28 05:38:25;;;;;;;1999.90;999.90;;;;;;;10.37;100.00;95676.72;5114399;28;20176;-64
2022/10/28 05:40:50;;;;;;;1999.90;999.90;;;;;;;10.37;100.00;95681.44;5114343;28;20178;-64
2022/10/28 05:43:16;;;;;;;1999.90;999.90;;;;;;;10.43;100.00;95677.09;5114181;28;20195;-75
2022/10/28 05:45:41;;;;;;;1999.90;999.90;;;;;;;10.49;100.00;95689.19;5113712;28;20256;-75
2022/10/28 05:48:06;;;;;;;1999.90;999.90;;;;;;;10.56;100.00;95709.03;5114084;28;20201;-74
2022/10/28 05:50:32;;;;;;;1999.90;999.90;;;;;;;10.61;100.00;95716.06;5114177;28;20188;-74
2022/10/28 05:52:58;;;;;;;1999.90;999.90;;;;;;;10.65;100.00;95725.00;5113973;28;20229;-75
2022/10/28 05:55:27;;;;;;;1999.90;999.90;;;;;;;10.72;100.00;95727.72;5114303;28;20176;-76
2022/10/28 05:57:53;;;;;;;1999.90;999.90;;;;;;;10.81;100.00;95752.69;5113728;28;20271;-64
2022/10/28 06:00:20;;;;;;;1999.90;999.90;;;;;;;10.92;100.00;95765.13;5114006;28;20236;-64
2022/10/28 06:02:46;;;;;;;1999.90;999.90;;;;;;;11.03;100.00;95782.25;5114027;28;20176;-64
2022/10/28 06:05:11;;;;;;;1999.90;999.90;;;;;;;11.24;100.00;95801.31;5113819;28;20202;-64
2022/10/28 06:07:38;;;;;;;1999.90;999.90;;;;;;;11.42;100.00;95831.28;5113746;28;20203;-63
2022/10/28 06:10:05;;;;;;;1999.90;999.90;;;;;;;11.72;100.00;95861.66;5114139;28;20176;-65
2022/10/28 06:12:31;;;;;;;1999.90;999.90;;;;;;;12.06;100.00;95890.03;5113392;28;20170;-64
2022/10/28 06:14:56;;;;;;;1999.90;999.90;;;;;;;12.44;100.00;95913.63;5114200;28;20186;-63
2022/10/28 06:17:22;;;;;;;1999.90;999.90;;;;;;;12.84;100.00;95949.34;5113753;28;20172;-63
2022/10/28 06:19:47;;;;;;;1999.90;999.90;;;;;;;13.36;100.00;95988.50;5114363;28;20204;-62
2022/10/28 06:22:13;;;;;;;1999.90;999.90;;;;;;;13.81;100.00;96011.97;5113859;28;20186;-62
2022/10/28 06:24:38;;;;;;;1999.90;999.90;;;;;;;14.15;100.00;96053.94;5113357;28;20309;-62
2022/10/28 06:27:04;;;;;;;1999.90;999.90;;;;;;;14.35;100.00;96071.41;5113653;28;20199;-62
2022/10/28 06:29:31;;;;;;;1999.90;999.90;;;;;;;14.52;100.00;96084.16;5113732;28;20206;-62
2022/10/28 06:31:56;;;;;;;1999.90;999.90;;;;;;;14.73;100.00;96094.09;5113613;28;20176;-63
2022/10/28 06:34:22;;;;;;;1999.90;999.90;;;;;;;14.85;100.00;96113.59;5113809;28;20168;-76
2022/10/28 06:36:47;;;;;;;1999.90;999.90;;;;;;;14.96;100.00;96114.22;5117587;28;20183;-77
2022/10/28 06:39:12;;;;;;;1999.90;999.90;;;;;;;15.52;100.00;96118.94;5117993;28;20179;-81
2022/10/28 06:41:37;;;;;;;1999.90;999.90;;;;;;;15.81;100.00;96128.28;5117108;28;20172;-81
2022/10/28 06:44:03;;;;;;;1999.90;999.90;;;;;;;16.09;100.00;96141.59;5117670;28;20201;-77
2022/10/28 06:46:28;;;;;;;1999.90;999.90;;;;;;;16.33;100.00;96145.88;5116829;28;20207;-76
2022/10/28 06:48:54;;;;;;;1999.90;999.90;;;;;;;16.28;100.00;96160.16;5117480;28;20172;-77
2022/10/28 06:51:20;;;;;;;1999.90;999.90;;;;;;;16.47;100.00;96163.41;5117367;28;20267;-77
2022/10/28 06:53:51;;;;;;;1999.90;999.90;;;;;;;16.69;100.00;96167.31;5117450;28;20262;-64
2022/10/28 06:56:17;;;;;;;1999.90;999.90;;;;;;;16.31;100.00;96169.56;5117388;28;20178;-63
2022/10/28 06:58:43;;;;;;;1999.90;999.90;;;;;;;15.69;100.00;96166.66;5117415;28;20255;-62
2022/10/28 07:01:09;;;;;;;1999.90;999.90;;;;;;;15.54;100.00;96166.13;5117133;28;20167;-62
2022/10/28 07:03:34;;;;;;;1999.90;999.90;;;;;;;15.39;100.00;96158.47;5116931;28;20287;-63
2022/10/28 07:06:00;;;;;;;1999.90;999.90;;;;;;;15.56;100.00;96163.69;5116885;28;20206;-63
2022/10/28 07:08:26;;;;;;;1999.90;999.90;;;;;;;16.59;100.00;96169.09;5117070;28;20254;-62
2022/10/28 07:10:56;;;;;;;1999.90;999.90;;;;;;;17.55;100.00;96179.75;5117414;28;20172;-63
2022/10/28 07:13:22;;;;;;;1999.90;999.90;;;;;;;18.29;100.00;96195.34;5116977;28;20254;-63
2022/10/28 07:15:52;;;;;;;1999.90;999.90;;;;;;;18.69;100.00;96197.44;5116547;28;20168;-63
2022/10/28 07:18:18;;;;;;;1999.90;999.90;;;;;;;18.49;100.00;96196.03;5116943;28;20177;-63
2022/10/28 07:20:43;;;;;;;1999.90;999.90;;;;;;;18.77;100.00;96200.81;5117439;28;20179;-63
2022/10/28 07:23:09;;;;;;;1999.90;999.90;;;;;;;19.13;100.00;96204.16;5116690;28;20287;-64
2022/10/28 07:25:34;;;;;;;1999.90;999.90;;;;;;;19.73;100.00;96207.97;5116463;28;20286;-64
2022/10/28 07:28:00;;;;;;;1999.90;999.90;;;;;;;20.39;100.00;96214.16;5116592;28;20183;-64
2022/10/28 07:30:26;;;;;;;1999.90;999.90;;;;;;;20.57;100.00;96217.13;5116664;28;20236;-62
2022/10/28 07:32:52;;;;;;;1999.90;999.90;;;;;;;21.01;100.00;96218.78;5116217;28;20210;-64
2022/10/28 07:35:17;;;;;;;1999.90;999.90;;;;;;;21.56;100.00;96225.53;5116045;28;20196;-65
2022/10/28 07:37:43;;;;;;;1999.90;999.90;;;;;;;21.69;100.00;96221.44;5117428;28;20186;-63
2022/10/28 07:40:09;;;;;;;1999.90;999.90;;;;;;;21.94;100.00;96215.72;5116890;28;20199;-64
2022/10/28 07:42:34;;;;;;;1999.90;999.90;;;;;;;21.61;100.00;96214.59;5116508;28;20172;-63
2022/10/28 07:45:00;;;;;;;1999.90;999.90;;;;;;;21.61;100.00;96216.59;5116491;28;20262;-64
2022/10/28 07:47:25;;;;;;;1999.90;999.90;;;;;;;22.29;100.00;96217.09;5115203;28;20186;-63
2022/10/28 07:49:51;;;;;;;1999.90;999.90;;;;;;;22.55;100.00;96223.22;5115722;28;20184;-63
2022/10/28 07:52:16;;;;;;;1999.90;999.90;;;;;;;22.96;100.00;96224.66;5116641;28;20168;-62
2022/10/28 07:54:41;;;;;;;1999.90;999.90;;;;;;;22.94;100.00;96216.00;5116524;28;20201;-63
2022/10/28 07:57:07;;;;;;;1999.90;999.90;;;;;;;23.04;100.00;96214.75;5115917;28;20180;-62
2022/10/28 07:59:32;;;;;;;1999.90;999.90;;;;;;;23.24;100.00;96215.09;5115718;28;20183;-63
2022/10/28 08:01:57;;;;;;;1999.90;999.90;;;;;;;23.74;100.00;96225.59;5115764;28;20217;-62
2022/10/28 08:04:23;;;;;;;1999.90;999.90;;;;;;;24.04;98.50;96222.53;5115761;28;20218;-63
2022/10/28 08:06:48;;;;;;;1999.90;999.90;;;;;;;23.99;100.00;96222.41;5115946;28;20210;-78
2022/10/28 08:09:15;;;;;;;1999.90;999.90;;;;;;;24.45;93.22;96226.56;5116440;28;20168;-65
2022/10/28 08:11:40;;;;;;;1999.90;999.90;;;;;;;25.08;89.86;96228.97;5114998;28;20203;-64
2022/10/28 08:14:06;;;;;;;1999.90;999.90;;;;;;;25.49;86.15;96224.50;5098047;28;20180;-64
2022/10/28 08:16:31;;;;;;;1999.90;999.90;;;;;;;25.60;82.08;96225.44;5098155;28;20314;-65
2022/10/28 08:18:57;;;;;;;1999.90;999.90;;;;;;;26.03;82.44;96227.50;5097996;28;20172;-65
2022/10/28 08:21:23;;;;;;;1999.90;999.90;;;;;;;26.51;77.28;96225.22;5097461;28;20180;-65
2022/10/28 08:23:48;;;;;;;1999.90;999.90;;;;;;;26.73;73.24;96225.56;5097423;28;20216;-65
2022/10/28 08:26:15;;;;;;;1999.90;999.90;;;;;;;27.33;71.75;96234.81;5114521;28;20275;-65
2022/10/28 08:28:41;;;;;;;1999.90;999.90;;;;;;;27.46;71.34;96221.16;5097829;28;20168;-63
2022/10/28 08:31:11;;;;;;;1999.90;999.90;;;;;;;28.03;68.77;96230.44;5097402;28;20309;-63
2022/10/28 08:33:38;;;;;;;1999.90;999.90;;;;;;;28.05;66.68;96225.09;5114718;28;20187;-62
2022/10/28 08:36:09;;;;;;;1999.90;999.90;;;;;;;27.73;66.55;96229.13;5097082;28;20179;-62
2022/10/28 08:38:34;;;;;;;1999.90;999.90;;;;;;;27.11;68.80;96228.88;5097007;28;20270;-62
2022/10/28 08:41:14;;;;;;;1999.90;999.90;;;;;;;27.10;69.89;96220.97;5115040;28;20259;-62
2022/10/28 08:43:51;;;;;;;1999.90;999.90;;;;;;;26.58;71.51;96222.78;5115248;28;20179;-82
2022/10/28 08:46:23;;;;;;;1999.90;999.90;;;;;;;25.84;73.49;96223.34;5114846;28;20199;-64
2022/10/28 08:48:48;;;;;;;1999.90;999.90;;;;;;;25.11;82.01;96220.44;5114852;28;20233;-64
2022/10/28 08:51:29;;;;;;;1999.90;999.90;;;;;;;24.54;89.21;96212.53;5115324;28;20192;-64
2022/10/28 08:53:59;;;;;;;1999.90;999.90;;;;;;;24.11;93.28;96213.84;5114782;28;20178;-64
2022/10/28 08:56:28;;;;;;;1999.90;999.90;;;;;;;23.57;100.00;96202.06;5115314;28;20202;-65
2022/10/28 08:58:59;;;;;;;1999.90;999.90;;;;;;;23.45;97.36;96208.59;5114264;28;20222;-64
2022/10/28 09:01:40;;;;;;;1999.90;999.90;;;;;;;22.97;100.00;96220.63;5114647;28;20237;-62
2022/10/28 09:04:25;;;;;;;1999.90;999.90;;;;;;;22.83;100.00;96221.25;5114990;28;20190;-64
2022/10/28 09:06:50;;;;;;;1999.90;999.90;;;;;;;23.07;100.00;96211.84;5114861;28;20191;-64
2022/10/28 09:09:21;;;;;;;1999.90;999.90;;;;;;;23.11;100.00;96217.25;5114473;28;20211;-64
2022/10/28 09:11:49;;;;;;;1999.90;999.90;;;;;;;23.14;100.00;96225.47;5114163;28;20195;-64
2022/10/28 09:14:55;;;;;;;1999.90;999.90;;;;;;;23.19;100.00;96224.06;5114448;28;20199;-64
2022/10/28 09:17:37;;;;;;;1999.90;999.90;;;;;;;23.51;100.00;96229.00;5096982;28;20232;-64
2022/10/28 09:20:39;;;;;;;1999.90;999.90;;;;;;;23.79;100.00;96224.94;5114967;28;20182;-64
2022/10/28 09:23:19;;;;;;;1999.90;999.90;;;;;;;24.17;100.00;96216.75;5100509;28;20292;-72
2022/10/28 09:26:10;;;;;;;1999.90;999.90;;;;;;;24.35;94.40;96225.84;5113768;28;20198;-71
2022/10/28 09:29:32;;;;;;;1999.90;999.90;;;;;;;24.41;96.07;96225.97;5072433;28;20551;-71
2022/10/28 09:32:17;;;;;;;1999.90;999.90;;;;;;;24.54;93.57;96226.50;5071300;28;20189;-70
2022/10/28 09:34:53;;;;;;;1999.90;999.90;;;;;;;24.48;92.94;96220.03;5070414;28;20304;-71
2022/10/28 09:37:28;;;;;;;1999.90;999.90;;;;;;;24.22;95.05;96213.34;5071224;28;20172;-71
2022/10/28 09:40:04;;;;;;;1999.90;999.90;;;;;;;24.05;100.00;96209.38;5071527;28;20165;-62
2022/10/28 09:42:37;;;;;;;1999.90;999.90;;;;;;;23.94;100.00;96214.69;5071398;28;20199;-63
2022/10/28 09:45:28;;;;;;;1999.90;999.90;;;;;;;23.95;100.00;96219.03;5070482;28;20174;-62
2022/10/28 09:48:21;;;;;;;1999.90;999.90;;;;;;;24.86;100.00;96211.75;5070548;28;20296;-62
2022/10/28 09:50:53;;;;;;;1999.90;999.90;;;;;;;25.91;89.96;96208.97;5060844;28;20193;-63
2022/10/28 09:53:28;;;;;;;1999.90;999.90;;;;;;;27.14;80.12;96215.91;5070926;28;20180;-62
2022/10/28 09:55:54;;;;;;;1999.90;999.90;;;;;;;27.32;75.69;96221.25;5070358;28;20176;-63
2022/10/28 09:58:20;;;;;;;1999.90;999.90;;;;;;;27.30;74.25;96218.94;5071164;28;20177;-63
2022/10/28 10:00:45;;;;;;;1999.90;999.90;;;;;;;27.72;76.20;96210.69;5070038;28;20183;-64
2022/10/28 10:03:11;;;;;;;1999.90;999.90;;;;;;;27.80;73.66;96217.44;5070704;28;20181;-64
2022/10/28 10:06:00;;;;;;;1999.90;999.90;;;;;;;27.93;72.06;96219.84;5069992;28;20189;-64
2022/10/28 10:08:25;;;;;;;1999.90;999.90;;;;;;;28.32;71.06;96206.16;5069951;28;20243;-64
2022/10/28 10:11:05;;;;;;;1999.90;999.90;;;;;;;28.36;70.76;96207.44;5069988;28;20178;-64
2022/10/28 10:13:40;;;;;;;1999.90;999.90;;;;;;;28.67;67.44;96215.88;5069836;28;20169;-64
2022/10/28 10:16:38;;;;;;;1999.90;999.90;;;;;;;28.67;68.13;96215.09;5070497;28;20168;-81
2022/10/28 10:19:07;;;;;;;1999.90;999.90;;;;;;;28.93;65.86;96207.31;5070430;28;20180;-65
2022/10/28 10:21:55;;;;;;;1999.90;999.90;;;;;;;29.03;67.28;96208.69;5069723;28;20196;-65
2022/10/28 10:24:28;;;;;;;1999.90;999.90;;;;;;;29.14;64.95;96209.50;5069676;28;20177;-65
2022/10/28 10:26:53;;;;;;;1999.90;999.90;;;;;;;29.28;66.07;96210.56;5069441;28;20241;-65
2022/10/28 10:29:20;;;;;;;1999.90;999.90;;;;;;;29.23;65.56;96212.09;5069412;28;20248;-65
2022/10/28 10:31:46;;;;;;;1999.90;999.90;;;;;;;28.31;68.60;96211.00;5069810;28;20184;-65
2022/10/28 10:34:23;;;;;;;1999.90;999.90;;;;;;;27.17;72.90;96206.50;5069305;28;20169;-69
2022/10/28 10:36:52;;;;;;;1999.90;999.90;;;;;;;26.22;80.03;96203.63;5069230;28;20184;-63
2022/10/28 10:39:37;;;;;;;1999.90;999.90;;;;;;;25.99;81.00;96201.72;5062432;28;20174;-62
2022/10/28 10:42:14;;;;;;;1999.90;999.90;;;;;;;26.10;84.37;96201.91;5056279;28;20166;-62
2022/10/28 10:44:41;;;;;;;1999.90;999.90;;;;;;;26.44;83.06;96200.41;5056840;28;20220;-63
2022/10/28 10:47:06;;;;;;;1999.90;999.90;;;;;;;25.93;84.56;96197.28;5056129;28;20201;-62
2022/10/28 10:49:33;;;;;;;1999.90;999.90;;;;;;;25.92;87.50;96193.69;5056124;28;20176;-63
2022/10/28 10:52:03;;;;;;;1999.90;999.90;;;;;;;25.76;89.36;96188.59;5055901;28;20174;-63
2022/10/28 10:54:31;;;;;;;1999.90;999.90;;;;;;;25.39;92.23;96188.19;5056513;28;20174;-62
2022/10/28 10:57:08;;;;;;;1999.90;999.90;;;;;;;25.26;91.75;96184.09;5056074;28;20228;-63
2022/10/28 10:59:36;;;;;;;1999.90;999.90;;;;;;;25.16;96.08;96180.59;5056372;28;20178;-63